Flight Track Log - Related Links

Times and Time Zones

All times are in EDT time to prevent confusion due to time zone crossing. See the SWA1668 flight status page for this flight to view local times or setup timezone preferences in your user account.

Time Position Orientation Groundspeed Altitude Reporting Facility
EDT Latitude Longitude Course Direction KTS MPH feet Rate Location/Type
Wed 04:14:20 PM 35.1842 -101.4647 105° East 292 336 11,100  Level Albuquerque Center
Wed 04:15:22 PM 35.1592 -101.3450 104° East 352 405 14,300 3,194 Climbing Albuquerque Center
Wed 04:16:24 PM 35.1328 -101.2225 105° East 370 426 17,700 3,048 Climbing Albuquerque Center
Wed 04:17:00 PM 35.1002 -101.1341 107° East  Level FlightAware Approximate
Wed 04:17:26 PM 35.0944 -101.1050 112° Southeast 373 429 20,600  Level Albuquerque Center
Wed 04:18:00 PM 35.0830 -101.0155 112° Southeast  Level FlightAware Approximate
Wed 04:18:28 PM 35.0319 -100.9606 118° Southeast 397 457 23,200  Level Albuquerque Center
Wed 04:19:30 PM 34.9775 -100.8339 118° Southeast 416 479 25,500 2,129 Climbing Albuquerque Center
Wed 04:20:32 PM 34.9206 -100.7011 118° Southeast 434 499 27,600 1,935 Climbing Albuquerque Center
Wed 04:21:34 PM 34.8614 -100.5650 118° Southeast 448 516 29,500 1,887 Climbing Albuquerque Center
Wed 04:22:36 PM 34.8008 -100.4256 118° Southeast 462 532 31,500 2,439 Climbing Albuquerque Center
Wed 04:23:37 PM 34.7336 -100.2742 118° Southeast 454 522 34,500 2,195 Climbing Albuquerque Center
Wed 04:24:39 PM 34.6769 -100.1442 118° Southeast 440 506 36,000 1,161 Climbing Albuquerque Center
Wed 04:25:41 PM 34.6175 -100.0097 118° Southeast 446 513 36,900 1,016 Climbing Albuquerque Center
Wed 04:26:43 PM 34.5567 -99.8725 118° Southeast 456 525 38,100 1,016 Climbing Albuquerque Center
Wed 04:27:45 PM 34.4956 -99.7347 118° Southeast 461 531 39,000 454 Climbing Albuquerque Center
Wed 04:28:42 PM 34.4336 -99.6017 119° Southeast 465 535 39,000  Level Fort Worth Center
Wed 04:29:42 PM 34.3733 -99.4667 118° Southeast 465 535 39,000  Level Fort Worth Center
Wed 04:30:42 PM 34.3092 -99.3167 117° Southeast 465 535 39,000  Level Fort Worth Center
Wed 04:31:42 PM 34.2506 -99.1872 119° Southeast 453 521 39,000  Level Fort Worth Center
Wed 04:32:42 PM 34.1856 -99.0556 121° Southeast 453 521 39,000  Level Fort Worth Center
Wed 04:33:42 PM 34.1267 -98.9264 119° Southeast 447 514 39,000 -200 Level Fort Worth Center
Wed 04:34:42 PM 34.0697 -98.7925 117° Southeast 447 514 38,600 -1,350 Descending Fort Worth Center
Wed 04:35:42 PM 34.0106 -98.6614 119° Southeast 446 513 36,300 -2,700 Descending Fort Worth Center
Wed 04:36:42 PM 33.9492 -98.5328 120° Southeast 441 507 33,200 -3,100 Descending Fort Worth Center
Wed 04:37:42 PM 33.8897 -98.4067 120° Southeast 436 502 30,100 -2,950 Descending Fort Worth Center
Wed 04:38:42 PM 33.8281 -98.2736 119° Southeast 447 514 27,300 -2,650 Descending Fort Worth Center
Wed 04:39:42 PM 33.7664 -98.1406 119° Southeast 447 514 24,800 -2,500 Descending Fort Worth Center
Wed 04:40:42 PM 33.7086 -98.0153 119° Southeast 441 507 22,300 -2,450 Descending Fort Worth Center
Wed 04:41:42 PM 33.6506 -97.8975 121° Southeast 428 493 19,900 -2,350 Descending Fort Worth Center
Wed 04:42:42 PM 33.5989 -97.7850 119° Southeast 410 472 17,600 -2,250 Descending Fort Worth Center
Wed 04:43:42 PM 33.5492 -97.6800 120° Southeast 394 453 15,400 -2,200 Descending Fort Worth Center
Wed 04:44:42 PM 33.4969 -97.5703 120° Southeast 389 448 13,200 -2,350 Descending Fort Worth Center
Wed 04:45:42 PM 33.4344 -97.4533 123° Southeast 384 442 10,700 -1,650 Descending Fort Worth Center
Wed 04:46:42 PM 33.3697 -97.3861 139° Southeast 358 412 9,900 -900 Descending Fort Worth Center
Wed 04:47:42 PM 33.3594 -97.2817 97° East 284 327 8,900 -1,300 Descending Fort Worth Center
Wed 04:48:42 PM 33.3656 -97.1969 85° East 279 321 7,300 -1,500 Descending Fort Worth Center
Wed 04:49:42 PM 33.3631 -97.0950 92° East 279 321 5,900 -1,250 Descending Fort Worth Center
Wed 04:50:42 PM 33.3672 -97.0156 86° East 269 310 4,800 -950 Descending Fort Worth Center
Wed 04:51:42 PM 33.3625 -96.9236 93° East 254 292 4,000 -400 Descending Fort Worth Center
Wed 04:52:42 PM 33.3144 -96.8717 138° Southeast 233 268 4,000 50 Level Fort Worth Center
Wed 04:53:42 PM 33.2494 -96.8347 155° Southeast 233 268 4,100  Climbing Fort Worth Center
Wed 04:54:42 PM 33.1850 -96.8450 188° South 250 288 4,000 -50 Descending Fort Worth Center
Wed 04:55:42 PM 33.1161 -96.8553 187° South 250 288 4,000  Level Fort Worth Center
Wed 04:56:30 PM 33.0667 -96.8667 191° South 223 257 4,000 -333 Level Dallas / Fort Worth TRACON
Wed 04:57:30 PM 33.0167 -96.8833 196° South 205 236 3,400 -850 Descending Dallas / Fort Worth TRACON
Wed 04:58:30 PM 32.9500 -96.9000 192° South 198 228 2,300 -762 Descending Dallas / Fort Worth TRACON
Wed 04:59:36 PM 32.9000 -96.9000 180° South 160 184 1,800 -632 Descending Dallas / Fort Worth TRACON
Wed 05:00:24 PM 32.8833 -96.8833 140° Southeast 140 161 1,100 -875 Descending Dallas / Fort Worth TRACON
Wed 05:02:00 PM 32.8471 -96.8518 140° Southeast  Level Estimated
Wed 05:09:00 PM 32.8471 -96.8518 140° Southeast  Level Estimated

Login

Don't have an account? Register now (free) for customized features, flight alerts, and more!